sensor_id;sensor_type;location;lat;lon;timestamp;temperature;humidity
21047;DHT22;10682;50.874;3.656;2022-07-06T00:01:01;11.70;99.90
21047;DHT22;10682;50.874;3.656;2022-07-06T00:03:28;11.70;99.90
21047;DHT22;10682;50.874;3.656;2022-07-06T00:05:56;11.70;99.90
21047;DHT22;10682;50.874;3.656;2022-07-06T00:08:23;11.70;99.90
21047;DHT22;10682;50.874;3.656;2022-07-06T00:10:51;11.70;99.90
21047;DHT22;10682;50.874;3.656;2022-07-06T00:13:18;11.80;99.90
21047;DHT22;10682;50.874;3.656;2022-07-06T00:15:45;11.70;99.90
21047;DHT22;10682;50.874;3.656;2022-07-06T00:18:12;11.60;99.90
21047;DHT22;10682;50.874;3.656;2022-07-06T00:20:40;11.50;99.90
21047;DHT22;10682;50.874;3.656;2022-07-06T00:23:07;11.50;99.90
21047;DHT22;10682;50.874;3.656;2022-07-06T00:25:34;11.40;99.90
21047;DHT22;10682;50.874;3.656;2022-07-06T00:28:01;11.40;99.90
21047;DHT22;10682;50.874;3.656;2022-07-06T00:30:28;11.30;99.90
21047;DHT22;10682;50.874;3.656;2022-07-06T00:32:55;11.30;99.90
21047;DHT22;10682;50.874;3.656;2022-07-06T00:35:25;11.30;99.90
21047;DHT22;10682;50.874;3.656;2022-07-06T00:37:52;11.30;99.90
21047;DHT22;10682;50.874;3.656;2022-07-06T00:40:20;11.30;99.90
21047;DHT22;10682;50.874;3.656;2022-07-06T00:42:48;11.30;99.90
21047;DHT22;10682;50.874;3.656;2022-07-06T00:45:17;11.20;99.90
21047;DHT22;10682;50.874;3.656;2022-07-06T00:47:45;11.20;99.90
21047;DHT22;10682;50.874;3.656;2022-07-06T00:50:14;11.20;99.90
21047;DHT22;10682;50.874;3.656;2022-07-06T00:52:58;11.10;99.90
21047;DHT22;10682;50.874;3.656;2022-07-06T00:55:28;11.10;99.90
21047;DHT22;10682;50.874;3.656;2022-07-06T00:58:03;11.10;99.90
21047;DHT22;10682;50.874;3.656;2022-07-06T01:00:31;11.10;99.90
21047;DHT22;10682;50.874;3.656;2022-07-06T01:02:59;11.10;99.90
21047;DHT22;10682;50.874;3.656;2022-07-06T01:05:26;11.10;99.90
21047;DHT22;10682;50.874;3.656;2022-07-06T01:07:53;11.20;99.90
21047;DHT22;10682;50.874;3.656;2022-07-06T01:10:21;11.20;99.90
21047;DHT22;10682;50.874;3.656;2022-07-06T01:12:49;11.20;99.90
21047;DHT22;10682;50.874;3.656;2022-07-06T01:15:20;11.20;99.90
21047;DHT22;10682;50.874;3.656;2022-07-06T01:17:48;11.20;99.90
21047;DHT22;10682;50.874;3.656;2022-07-06T01:20:21;11.30;99.90
21047;DHT22;10682;50.874;3.656;2022-07-06T01:22:51;11.30;99.90
21047;DHT22;10682;50.874;3.656;2022-07-06T01:25:20;11.40;99.90
21047;DHT22;10682;50.874;3.656;2022-07-06T01:27:48;11.50;99.90
21047;DHT22;10682;50.874;3.656;2022-07-06T01:30:17;11.50;99.90
21047;DHT22;10682;50.874;3.656;2022-07-06T01:32:45;11.60;99.90
21047;DHT22;10682;50.874;3.656;2022-07-06T01:35:14;11.60;99.90
21047;DHT22;10682;50.874;3.656;2022-07-06T01:37:42;11.60;99.90
21047;DHT22;10682;50.874;3.656;2022-07-06T01:40:10;11.50;99.90
21047;DHT22;10682;50.874;3.656;2022-07-06T01:42:38;11.40;99.90
21047;DHT22;10682;50.874;3.656;2022-07-06T01:45:06;11.30;99.90
21047;DHT22;10682;50.874;3.656;2022-07-06T01:47:34;11.30;99.90
21047;DHT22;10682;50.874;3.656;2022-07-06T01:50:05;11.30;99.90
21047;DHT22;10682;50.874;3.656;2022-07-06T01:52:34;11.40;99.90
21047;DHT22;10682;50.874;3.656;2022-07-06T01:55:02;11.50;99.90
21047;DHT22;10682;50.874;3.656;2022-07-06T01:57:29;11.50;99.90
21047;DHT22;10682;50.874;3.656;2022-07-06T01:59:56;11.50;99.90
21047;DHT22;10682;50.874;3.656;2022-07-06T02:02:23;11.50;99.90
21047;DHT22;10682;50.874;3.656;2022-07-06T02:04:50;11.50;99.90
21047;DHT22;10682;50.874;3.656;2022-07-06T02:07:17;11.50;99.90
21047;DHT22;10682;50.874;3.656;2022-07-06T02:09:44;11.50;99.90
21047;DHT22;10682;50.874;3.656;2022-07-06T02:12:11;11.50;99.90
21047;DHT22;10682;50.874;3.656;2022-07-06T02:14:38;11.50;99.90
21047;DHT22;10682;50.874;3.656;2022-07-06T02:17:05;11.50;99.90
21047;DHT22;10682;50.874;3.656;2022-07-06T02:19:32;11.50;99.90
21047;DHT22;10682;50.874;3.656;2022-07-06T02:21:59;11.40;99.90
21047;DHT22;10682;50.874;3.656;2022-07-06T02:24:26;11.30;99.90
21047;DHT22;10682;50.874;3.656;2022-07-06T02:26:53;11.20;99.90
21047;DHT22;10682;50.874;3.656;2022-07-06T02:29:20;11.20;99.90
21047;DHT22;10682;50.874;3.656;2022-07-06T02:31:48;11.20;99.90
21047;DHT22;10682;50.874;3.656;2022-07-06T02:34:15;11.20;99.90
21047;DHT22;10682;50.874;3.656;2022-07-06T02:36:42;11.10;99.90
21047;DHT22;10682;50.874;3.656;2022-07-06T02:39:09;11.10;99.90
21047;DHT22;10682;50.874;3.656;2022-07-06T02:41:36;11.10;99.90
21047;DHT22;10682;50.874;3.656;2022-07-06T02:44:03;11.00;99.90
21047;DHT22;10682;50.874;3.656;2022-07-06T02:46:30;10.90;99.90
21047;DHT22;10682;50.874;3.656;2022-07-06T02:48:57;10.80;99.90
21047;DHT22;10682;50.874;3.656;2022-07-06T02:51:24;10.80;99.90
21047;DHT22;10682;50.874;3.656;2022-07-06T02:53:51;10.80;99.90
21047;DHT22;10682;50.874;3.656;2022-07-06T02:56:18;10.70;99.90
21047;DHT22;10682;50.874;3.656;2022-07-06T02:58:45;10.70;99.90
21047;DHT22;10682;50.874;3.656;2022-07-06T03:01:12;10.70;99.90
21047;DHT22;10682;50.874;3.656;2022-07-06T03:03:39;10.60;99.90
21047;DHT22;10682;50.874;3.656;2022-07-06T03:06:06;10.60;99.90
21047;DHT22;10682;50.874;3.656;2022-07-06T03:08:33;10.70;99.90
21047;DHT22;10682;50.874;3.656;2022-07-06T03:11:01;10.70;99.90
21047;DHT22;10682;50.874;3.656;2022-07-06T03:13:28;10.60;99.90
21047;DHT22;10682;50.874;3.656;2022-07-06T03:15:55;10.50;99.90
21047;DHT22;10682;50.874;3.656;2022-07-06T03:18:22;10.50;99.90
21047;DHT22;10682;50.874;3.656;2022-07-06T03:20:50;10.50;99.90
21047;DHT22;10682;50.874;3.656;2022-07-06T03:23:17;10.50;99.90
21047;DHT22;10682;50.874;3.656;2022-07-06T03:25:44;10.50;99.90
21047;DHT22;10682;50.874;3.656;2022-07-06T03:28:12;10.50;99.90
21047;DHT22;10682;50.874;3.656;2022-07-06T03:30:39;10.40;99.90
21047;DHT22;10682;50.874;3.656;2022-07-06T03:33:06;10.40;99.90
21047;DHT22;10682;50.874;3.656;2022-07-06T03:35:33;10.40;99.90
21047;DHT22;10682;50.874;3.656;2022-07-06T03:37:59;10.40;99.90
21047;DHT22;10682;50.874;3.656;2022-07-06T03:40:27;10.50;99.90
21047;DHT22;10682;50.874;3.656;2022-07-06T03:42:54;10.50;99.90
21047;DHT22;10682;50.874;3.656;2022-07-06T03:45:20;10.50;99.90
21047;DHT22;10682;50.874;3.656;2022-07-06T03:47:47;10.40;99.90
21047;DHT22;10682;50.874;3.656;2022-07-06T03:50:15;10.40;99.90
21047;DHT22;10682;50.874;3.656;2022-07-06T03:52:42;10.40;99.90
21047;DHT22;10682;50.874;3.656;2022-07-06T03:55:10;10.40;99.90
21047;DHT22;10682;50.874;3.656;2022-07-06T03:57:38;10.40;99.90
21047;DHT22;10682;50.874;3.656;2022-07-06T04:00:08;10.40;99.90
21047;DHT22;10682;50.874;3.656;2022-07-06T04:02:36;10.40;99.90
21047;DHT22;10682;50.874;3.656;2022-07-06T04:05:04;10.40;99.90
21047;DHT22;10682;50.874;3.656;2022-07-06T04:07:31;10.50;99.90
21047;DHT22;10682;50.874;3.656;2022-07-06T04:09:59;10.50;99.90
21047;DHT22;10682;50.874;3.656;2022-07-06T04:12:26;10.60;99.90
21047;DHT22;10682;50.874;3.656;2022-07-06T04:14:56;10.70;99.90
21047;DHT22;10682;50.874;3.656;2022-07-06T04:17:24;10.70;99.90
21047;DHT22;10682;50.874;3.656;2022-07-06T04:20:10;10.80;99.90
21047;DHT22;10682;50.874;3.656;2022-07-06T04:22:38;10.90;99.90
21047;DHT22;10682;50.874;3.656;2022-07-06T04:25:06;10.90;99.90
21047;DHT22;10682;50.874;3.656;2022-07-06T04:27:33;10.90;99.90
21047;DHT22;10682;50.874;3.656;2022-07-06T04:30:00;10.80;99.90
21047;DHT22;10682;50.874;3.656;2022-07-06T04:32:27;10.90;99.90
21047;DHT22;10682;50.874;3.656;2022-07-06T04:34:54;11.00;99.90
21047;DHT22;10682;50.874;3.656;2022-07-06T04:37:21;11.00;99.90
21047;DHT22;10682;50.874;3.656;2022-07-06T04:39:49;11.10;99.90
21047;DHT22;10682;50.874;3.656;2022-07-06T04:42:16;11.20;99.90
21047;DHT22;10682;50.874;3.656;2022-07-06T04:44:43;11.30;99.90
21047;DHT22;10682;50.874;3.656;2022-07-06T04:47:11;11.40;99.90
21047;DHT22;10682;50.874;3.656;2022-07-06T04:49:38;11.50;99.90
21047;DHT22;10682;50.874;3.656;2022-07-06T04:52:06;11.60;99.90
21047;DHT22;10682;50.874;3.656;2022-07-06T04:54:34;11.60;99.90
21047;DHT22;10682;50.874;3.656;2022-07-06T04:57:01;11.70;99.90
21047;DHT22;10682;50.874;3.656;2022-07-06T04:59:28;11.70;99.90
21047;DHT22;10682;50.874;3.656;2022-07-06T05:01:55;11.90;99.90
21047;DHT22;10682;50.874;3.656;2022-07-06T05:04:22;12.10;99.90
21047;DHT22;10682;50.874;3.656;2022-07-06T05:06:51;12.30;99.90
21047;DHT22;10682;50.874;3.656;2022-07-06T05:09:18;12.40;99.90
21047;DHT22;10682;50.874;3.656;2022-07-06T05:11:45;12.60;99.90
21047;DHT22;10682;50.874;3.656;2022-07-06T05:14:12;12.80;99.90
21047;DHT22;10682;50.874;3.656;2022-07-06T05:16:38;12.90;99.90
21047;DHT22;10682;50.874;3.656;2022-07-06T05:19:06;12.90;99.90
21047;DHT22;10682;50.874;3.656;2022-07-06T05:21:33;13.00;99.90
21047;DHT22;10682;50.874;3.656;2022-07-06T05:24:00;13.00;99.90
21047;DHT22;10682;50.874;3.656;2022-07-06T05:26:27;13.10;99.90
21047;DHT22;10682;50.874;3.656;2022-07-06T05:28:54;13.20;99.90
21047;DHT22;10682;50.874;3.656;2022-07-06T05:31:21;13.40;99.90
21047;DHT22;10682;50.874;3.656;2022-07-06T05:33:48;13.50;99.90
21047;DHT22;10682;50.874;3.656;2022-07-06T05:36:15;13.50;99.90
21047;DHT22;10682;50.874;3.656;2022-07-06T05:38:42;13.60;99.90
21047;DHT22;10682;50.874;3.656;2022-07-06T05:41:09;13.70;99.90
21047;DHT22;10682;50.874;3.656;2022-07-06T05:43:37;13.80;99.90
21047;DHT22;10682;50.874;3.656;2022-07-06T05:46:04;13.80;99.90
21047;DHT22;10682;50.874;3.656;2022-07-06T05:48:31;13.90;99.90
21047;DHT22;10682;50.874;3.656;2022-07-06T05:51:17;14.00;99.90
21047;DHT22;10682;50.874;3.656;2022-07-06T05:53:44;14.10;99.90
21047;DHT22;10682;50.874;3.656;2022-07-06T05:56:11;14.10;99.90
21047;DHT22;10682;50.874;3.656;2022-07-06T05:58:38;14.10;99.90
21047;DHT22;10682;50.874;3.656;2022-07-06T06:01:05;14.20;99.90
21047;DHT22;10682;50.874;3.656;2022-07-06T06:03:33;14.30;99.90
21047;DHT22;10682;50.874;3.656;2022-07-06T06:06:01;14.50;99.90
21047;DHT22;10682;50.874;3.656;2022-07-06T06:08:28;14.60;99.90
21047;DHT22;10682;50.874;3.656;2022-07-06T06:10:55;14.70;99.90
21047;DHT22;10682;50.874;3.656;2022-07-06T06:13:22;14.80;99.90
21047;DHT22;10682;50.874;3.656;2022-07-06T06:15:49;14.90;99.90
21047;DHT22;10682;50.874;3.656;2022-07-06T06:18:16;15.10;99.90
21047;DHT22;10682;50.874;3.656;2022-07-06T06:20:46;15.20;99.90
21047;DHT22;10682;50.874;3.656;2022-07-06T06:23:13;15.50;99.90
21047;DHT22;10682;50.874;3.656;2022-07-06T06:25:40;15.70;99.90
21047;DHT22;10682;50.874;3.656;2022-07-06T06:28:09;15.80;99.90
21047;DHT22;10682;50.874;3.656;2022-07-06T06:30:38;16.00;99.90
21047;DHT22;10682;50.874;3.656;2022-07-06T06:35:45;16.30;99.90
21047;DHT22;10682;50.874;3.656;2022-07-06T06:38:14;16.40;99.90
21047;DHT22;10682;50.874;3.656;2022-07-06T06:40:42;16.60;99.90
21047;DHT22;10682;50.874;3.656;2022-07-06T06:43:09;16.70;99.90
21047;DHT22;10682;50.874;3.656;2022-07-06T06:45:36;16.70;99.90
21047;DHT22;10682;50.874;3.656;2022-07-06T06:48:04;16.80;99.90
21047;DHT22;10682;50.874;3.656;2022-07-06T06:50:31;17.00;99.90
21047;DHT22;10682;50.874;3.656;2022-07-06T06:52:58;17.10;99.90
21047;DHT22;10682;50.874;3.656;2022-07-06T06:55:26;17.20;99.90
21047;DHT22;10682;50.874;3.656;2022-07-06T06:57:53;17.30;99.90
21047;DHT22;10682;50.874;3.656;2022-07-06T07:00:20;17.40;99.90
21047;DHT22;10682;50.874;3.656;2022-07-06T07:02:47;17.50;99.90
21047;DHT22;10682;50.874;3.656;2022-07-06T07:05:14;17.60;99.90
21047;DHT22;10682;50.874;3.656;2022-07-06T07:07:41;17.70;99.90
21047;DHT22;10682;50.874;3.656;2022-07-06T07:10:08;17.80;99.90
21047;DHT22;10682;50.874;3.656;2022-07-06T07:12:41;18.00;99.90
21047;DHT22;10682;50.874;3.656;2022-07-06T07:15:09;18.10;99.90
21047;DHT22;10682;50.874;3.656;2022-07-06T07:17:37;18.20;99.90
21047;DHT22;10682;50.874;3.656;2022-07-06T07:20:04;18.20;99.90
21047;DHT22;10682;50.874;3.656;2022-07-06T07:22:32;18.20;99.90
21047;DHT22;10682;50.874;3.656;2022-07-06T07:24:59;18.00;99.90
21047;DHT22;10682;50.874;3.656;2022-07-06T07:27:26;18.20;99.90
21047;DHT22;10682;50.874;3.656;2022-07-06T07:29:53;18.00;99.90
21047;DHT22;10682;50.874;3.656;2022-07-06T07:32:20;17.80;99.90
21047;DHT22;10682;50.874;3.656;2022-07-06T07:34:48;17.90;99.90
21047;DHT22;10682;50.874;3.656;2022-07-06T07:37:14;18.00;99.90
21047;DHT22;10682;50.874;3.656;2022-07-06T07:39:42;18.10;99.90
21047;DHT22;10682;50.874;3.656;2022-07-06T07:42:09;18.20;99.90
21047;DHT22;10682;50.874;3.656;2022-07-06T07:44:43;18.40;99.90
21047;DHT22;10682;50.874;3.656;2022-07-06T07:47:10;18.60;99.90
21047;DHT22;10682;50.874;3.656;2022-07-06T07:49:37;18.90;99.90
21047;DHT22;10682;50.874;3.656;2022-07-06T07:52:04;19.10;99.90
21047;DHT22;10682;50.874;3.656;2022-07-06T07:54:32;19.30;99.90
21047;DHT22;10682;50.874;3.656;2022-07-06T07:56:59;19.20;99.90
21047;DHT22;10682;50.874;3.656;2022-07-06T07:59:26;19.20;99.90
21047;DHT22;10682;50.874;3.656;2022-07-06T08:01:53;19.30;99.90
21047;DHT22;10682;50.874;3.656;2022-07-06T08:04:21;19.50;99.90
21047;DHT22;10682;50.874;3.656;2022-07-06T08:06:48;19.40;99.90
21047;DHT22;10682;50.874;3.656;2022-07-06T08:09:15;19.40;99.90
21047;DHT22;10682;50.874;3.656;2022-07-06T08:11:43;19.50;99.90
21047;DHT22;10682;50.874;3.656;2022-07-06T08:14:11;19.70;99.90
21047;DHT22;10682;50.874;3.656;2022-07-06T08:16:38;19.70;99.90
21047;DHT22;10682;50.874;3.656;2022-07-06T08:19:05;19.80;99.90
21047;DHT22;10682;50.874;3.656;2022-07-06T08:21:36;19.90;99.90
21047;DHT22;10682;50.874;3.656;2022-07-06T08:24:04;19.90;99.90
21047;DHT22;10682;50.874;3.656;2022-07-06T08:26:31;20.10;99.90
21047;DHT22;10682;50.874;3.656;2022-07-06T08:28:58;20.10;99.90
21047;DHT22;10682;50.874;3.656;2022-07-06T08:31:26;20.30;99.90
21047;DHT22;10682;50.874;3.656;2022-07-06T08:34:14;20.70;99.90
21047;DHT22;10682;50.874;3.656;2022-07-06T08:36:41;21.10;99.90
21047;DHT22;10682;50.874;3.656;2022-07-06T08:39:08;21.30;99.90
21047;DHT22;10682;50.874;3.656;2022-07-06T08:41:36;21.50;99.90
21047;DHT22;10682;50.874;3.656;2022-07-06T08:44:06;22.10;99.90
21047;DHT22;10682;50.874;3.656;2022-07-06T08:46:37;22.80;99.90
21047;DHT22;10682;50.874;3.656;2022-07-06T08:49:07;23.30;99.90
21047;DHT22;10682;50.874;3.656;2022-07-06T08:51:35;23.20;99.90
21047;DHT22;10682;50.874;3.656;2022-07-06T08:54:03;22.90;99.90
21047;DHT22;10682;50.874;3.656;2022-07-06T08:56:30;22.60;99.90
21047;DHT22;10682;50.874;3.656;2022-07-06T08:58:58;22.40;99.90
21047;DHT22;10682;50.874;3.656;2022-07-06T09:01:26;22.80;99.90
21047;DHT22;10682;50.874;3.656;2022-07-06T09:03:55;22.70;99.90
21047;DHT22;10682;50.874;3.656;2022-07-06T09:06:26;22.80;99.90
21047;DHT22;10682;50.874;3.656;2022-07-06T09:08:55;22.60;99.90
21047;DHT22;10682;50.874;3.656;2022-07-06T09:11:24;22.40;99.90
21047;DHT22;10682;50.874;3.656;2022-07-06T09:13:54;22.10;99.90
21047;DHT22;10682;50.874;3.656;2022-07-06T09:16:28;21.70;99.90
21047;DHT22;10682;50.874;3.656;2022-07-06T09:19:07;21.50;99.90
21047;DHT22;10682;50.874;3.656;2022-07-06T09:21:34;21.60;99.90
21047;DHT22;10682;50.874;3.656;2022-07-06T09:24:10;21.80;99.90
21047;DHT22;10682;50.874;3.656;2022-07-06T09:26:40;21.80;99.90
21047;DHT22;10682;50.874;3.656;2022-07-06T09:29:08;21.60;99.90
21047;DHT22;10682;50.874;3.656;2022-07-06T09:31:35;21.40;99.90
21047;DHT22;10682;50.874;3.656;2022-07-06T09:34:07;21.40;99.90
21047;DHT22;10682;50.874;3.656;2022-07-06T09:36:43;21.40;99.90
21047;DHT22;10682;50.874;3.656;2022-07-06T09:39:28;21.30;99.90
21047;DHT22;10682;50.874;3.656;2022-07-06T09:41:57;21.20;99.90
21047;DHT22;10682;50.874;3.656;2022-07-06T09:44:31;21.10;99.90
21047;DHT22;10682;50.874;3.656;2022-07-06T09:47:08;21.20;99.90
21047;DHT22;10682;50.874;3.656;2022-07-06T09:49:37;21.20;99.90
21047;DHT22;10682;50.874;3.656;2022-07-06T09:52:09;21.30;99.90
21047;DHT22;10682;50.874;3.656;2022-07-06T09:54:38;21.30;99.90
21047;DHT22;10682;50.874;3.656;2022-07-06T09:57:06;21.30;99.90
21047;DHT22;10682;50.874;3.656;2022-07-06T09:59:36;21.10;99.90
21047;DHT22;10682;50.874;3.656;2022-07-06T10:02:07;21.10;99.90
21047;DHT22;10682;50.874;3.656;2022-07-06T10:04:35;21.50;99.90
21047;DHT22;10682;50.874;3.656;2022-07-06T10:07:04;21.90;99.90
21047;DHT22;10682;50.874;3.656;2022-07-06T10:09:33;22.00;99.90
21047;DHT22;10682;50.874;3.656;2022-07-06T10:12:02;22.00;99.90
21047;DHT22;10682;50.874;3.656;2022-07-06T10:14:32;21.80;99.90
21047;DHT22;10682;50.874;3.656;2022-07-06T10:17:01;21.70;99.90
21047;DHT22;10682;50.874;3.656;2022-07-06T10:19:34;21.50;99.90
21047;DHT22;10682;50.874;3.656;2022-07-06T10:22:02;21.50;99.90
21047;DHT22;10682;50.874;3.656;2022-07-06T10:24:30;21.30;99.90
21047;DHT22;10682;50.874;3.656;2022-07-06T10:27:01;21.20;99.90
21047;DHT22;10682;50.874;3.656;2022-07-06T10:29:30;21.20;99.90
21047;DHT22;10682;50.874;3.656;2022-07-06T10:31:58;21.20;99.90
21047;DHT22;10682;50.874;3.656;2022-07-06T10:34:26;21.40;99.90
21047;DHT22;10682;50.874;3.656;2022-07-06T10:36:53;21.20;99.90
21047;DHT22;10682;50.874;3.656;2022-07-06T10:39:37;21.20;99.90
21047;DHT22;10682;50.874;3.656;2022-07-06T10:42:50;21.20;99.90
21047;DHT22;10682;50.874;3.656;2022-07-06T10:50:40;22.30;99.90
21047;DHT22;10682;50.874;3.656;2022-07-06T10:53:16;22.70;99.90
21047;DHT22;10682;50.874;3.656;2022-07-06T10:55:53;23.00;99.90
21047;DHT22;10682;50.874;3.656;2022-07-06T10:58:50;23.50;99.90
21047;DHT22;10682;50.874;3.656;2022-07-06T11:01:22;23.60;99.90
21047;DHT22;10682;50.874;3.656;2022-07-06T11:04:05;23.40;99.90
21047;DHT22;10682;50.874;3.656;2022-07-06T11:06:39;23.50;99.90
21047;DHT22;10682;50.874;3.656;2022-07-06T11:09:10;23.50;99.90
21047;DHT22;10682;50.874;3.656;2022-07-06T11:11:42;23.70;99.90
21047;DHT22;10682;50.874;3.656;2022-07-06T11:14:16;24.00;99.90
21047;DHT22;10682;50.874;3.656;2022-07-06T11:19:24;24.00;99.90
21047;DHT22;10682;50.874;3.656;2022-07-06T11:21:53;24.10;99.90
21047;DHT22;10682;50.874;3.656;2022-07-06T11:24:32;24.40;99.90
21047;DHT22;10682;50.874;3.656;2022-07-06T11:27:03;24.90;99.90
21047;DHT22;10682;50.874;3.656;2022-07-06T11:29:31;25.30;99.90
21047;DHT22;10682;50.874;3.656;2022-07-06T11:32:00;25.60;99.90
21047;DHT22;10682;50.874;3.656;2022-07-06T11:34:34;25.20;99.90
21047;DHT22;10682;50.874;3.656;2022-07-06T11:37:14;25.00;99.90
21047;DHT22;10682;50.874;3.656;2022-07-06T11:39:42;24.60;99.90
21047;DHT22;10682;50.874;3.656;2022-07-06T11:42:12;24.70;99.90
21047;DHT22;10682;50.874;3.656;2022-07-06T11:44:41;25.10;99.90
21047;DHT22;10682;50.874;3.656;2022-07-06T11:47:10;25.10;99.90
21047;DHT22;10682;50.874;3.656;2022-07-06T11:49:38;25.30;99.90
21047;DHT22;10682;50.874;3.656;2022-07-06T11:52:11;25.60;99.90
21047;DHT22;10682;50.874;3.656;2022-07-06T11:54:42;25.50;99.90
21047;DHT22;10682;50.874;3.656;2022-07-06T11:57:11;25.00;99.90
21047;DHT22;10682;50.874;3.656;2022-07-06T11:59:41;25.10;99.90
21047;DHT22;10682;50.874;3.656;2022-07-06T12:02:10;25.50;99.90
21047;DHT22;10682;50.874;3.656;2022-07-06T12:04:43;25.80;99.90
21047;DHT22;10682;50.874;3.656;2022-07-06T12:07:13;25.90;99.90
21047;DHT22;10682;50.874;3.656;2022-07-06T12:09:44;25.70;99.90
21047;DHT22;10682;50.874;3.656;2022-07-06T12:12:13;25.20;99.90
21047;DHT22;10682;50.874;3.656;2022-07-06T12:14:42;25.20;99.90
21047;DHT22;10682;50.874;3.656;2022-07-06T12:17:11;24.90;99.90
21047;DHT22;10682;50.874;3.656;2022-07-06T12:19:42;24.80;99.90
21047;DHT22;10682;50.874;3.656;2022-07-06T12:22:10;24.70;99.90
21047;DHT22;10682;50.874;3.656;2022-07-06T12:24:42;24.60;99.90
21047;DHT22;10682;50.874;3.656;2022-07-06T12:27:18;24.80;99.90
21047;DHT22;10682;50.874;3.656;2022-07-06T12:29:47;25.00;99.90
21047;DHT22;10682;50.874;3.656;2022-07-06T12:32:20;25.40;99.90
21047;DHT22;10682;50.874;3.656;2022-07-06T12:35:07;25.50;99.90
21047;DHT22;10682;50.874;3.656;2022-07-06T12:37:35;25.30;99.90
21047;DHT22;10682;50.874;3.656;2022-07-06T12:40:12;25.90;99.90
21047;DHT22;10682;50.874;3.656;2022-07-06T12:42:47;26.50;99.90
21047;DHT22;10682;50.874;3.656;2022-07-06T12:45:14;26.80;99.90
21047;DHT22;10682;50.874;3.656;2022-07-06T12:48:05;27.20;99.90
21047;DHT22;10682;50.874;3.656;2022-07-06T12:50:36;27.00;99.90
21047;DHT22;10682;50.874;3.656;2022-07-06T12:53:05;26.80;99.90
21047;DHT22;10682;50.874;3.656;2022-07-06T12:55:33;27.20;99.90
21047;DHT22;10682;50.874;3.656;2022-07-06T12:58:00;27.50;99.90
21047;DHT22;10682;50.874;3.656;2022-07-06T13:00:27;27.40;99.90
21047;DHT22;10682;50.874;3.656;2022-07-06T13:02:54;27.40;99.90
21047;DHT22;10682;50.874;3.656;2022-07-06T13:05:36;27.90;99.90
21047;DHT22;10682;50.874;3.656;2022-07-06T13:08:05;27.90;99.90
21047;DHT22;10682;50.874;3.656;2022-07-06T13:10:33;27.50;99.90
21047;DHT22;10682;50.874;3.656;2022-07-06T13:13:02;27.40;99.90
21047;DHT22;10682;50.874;3.656;2022-07-06T13:15:29;27.30;99.90
21047;DHT22;10682;50.874;3.656;2022-07-06T13:17:56;27.40;99.90
21047;DHT22;10682;50.874;3.656;2022-07-06T13:20:23;26.60;99.90
21047;DHT22;10682;50.874;3.656;2022-07-06T13:22:50;26.20;99.90
21047;DHT22;10682;50.874;3.656;2022-07-06T13:25:17;26.00;99.90
21047;DHT22;10682;50.874;3.656;2022-07-06T13:27:44;25.90;99.90
21047;DHT22;10682;50.874;3.656;2022-07-06T13:30:12;26.00;99.90
21047;DHT22;10682;50.874;3.656;2022-07-06T13:32:39;26.50;99.90
21047;DHT22;10682;50.874;3.656;2022-07-06T13:35:06;26.70;99.90
21047;DHT22;10682;50.874;3.656;2022-07-06T13:37:34;26.60;99.90
21047;DHT22;10682;50.874;3.656;2022-07-06T13:40:01;26.20;99.90
21047;DHT22;10682;50.874;3.656;2022-07-06T13:42:29;26.00;99.90
21047;DHT22;10682;50.874;3.656;2022-07-06T13:44:56;26.10;99.90
21047;DHT22;10682;50.874;3.656;2022-07-06T13:47:23;26.10;99.90
21047;DHT22;10682;50.874;3.656;2022-07-06T13:49:50;25.90;99.90
21047;DHT22;10682;50.874;3.656;2022-07-06T13:52:17;25.70;99.90
21047;DHT22;10682;50.874;3.656;2022-07-06T13:54:44;25.40;99.90
21047;DHT22;10682;50.874;3.656;2022-07-06T13:57:11;25.40;99.90
21047;DHT22;10682;50.874;3.656;2022-07-06T13:59:38;25.10;99.90
21047;DHT22;10682;50.874;3.656;2022-07-06T14:02:06;24.90;99.90
21047;DHT22;10682;50.874;3.656;2022-07-06T14:04:33;24.70;99.90
21047;DHT22;10682;50.874;3.656;2022-07-06T14:07:01;24.50;99.90
21047;DHT22;10682;50.874;3.656;2022-07-06T14:09:28;24.30;99.90
21047;DHT22;10682;50.874;3.656;2022-07-06T14:11:56;24.20;99.90
21047;DHT22;10682;50.874;3.656;2022-07-06T14:14:23;24.20;99.90
21047;DHT22;10682;50.874;3.656;2022-07-06T14:16:50;24.30;99.90
21047;DHT22;10682;50.874;3.656;2022-07-06T14:19:18;24.50;99.90
21047;DHT22;10682;50.874;3.656;2022-07-06T14:21:48;24.70;99.90
21047;DHT22;10682;50.874;3.656;2022-07-06T14:24:15;25.10;99.90
21047;DHT22;10682;50.874;3.656;2022-07-06T14:26:43;25.20;99.90
21047;DHT22;10682;50.874;3.656;2022-07-06T14:29:10;25.00;99.90
21047;DHT22;10682;50.874;3.656;2022-07-06T14:31:37;24.90;99.90
21047;DHT22;10682;50.874;3.656;2022-07-06T14:34:04;24.70;99.90
21047;DHT22;10682;50.874;3.656;2022-07-06T14:36:31;24.70;99.90
21047;DHT22;10682;50.874;3.656;2022-07-06T14:39:00;24.70;99.90
21047;DHT22;10682;50.874;3.656;2022-07-06T14:41:27;24.70;99.90
21047;DHT22;10682;50.874;3.656;2022-07-06T14:43:54;24.70;99.90
21047;DHT22;10682;50.874;3.656;2022-07-06T14:46:21;24.80;99.90
21047;DHT22;10682;50.874;3.656;2022-07-06T14:48:49;24.70;99.90
21047;DHT22;10682;50.874;3.656;2022-07-06T14:51:16;24.50;99.90
21047;DHT22;10682;50.874;3.656;2022-07-06T14:53:43;24.40;99.90
21047;DHT22;10682;50.874;3.656;2022-07-06T14:56:10;24.40;99.90
21047;DHT22;10682;50.874;3.656;2022-07-06T14:58:37;24.20;99.90
21047;DHT22;10682;50.874;3.656;2022-07-06T15:01:06;24.10;99.90
21047;DHT22;10682;50.874;3.656;2022-07-06T15:03:33;23.90;99.90
21047;DHT22;10682;50.874;3.656;2022-07-06T15:06:00;23.70;99.90
21047;DHT22;10682;50.874;3.656;2022-07-06T15:08:28;23.50;99.90
21047;DHT22;10682;50.874;3.656;2022-07-06T15:10:55;23.30;99.90
21047;DHT22;10682;50.874;3.656;2022-07-06T15:13:22;23.30;99.90
21047;DHT22;10682;50.874;3.656;2022-07-06T15:15:49;23.20;99.90
21047;DHT22;10682;50.874;3.656;2022-07-06T15:18:25;23.20;99.90
21047;DHT22;10682;50.874;3.656;2022-07-06T15:20:52;23.40;99.90
21047;DHT22;10682;50.874;3.656;2022-07-06T15:23:20;23.50;99.90
21047;DHT22;10682;50.874;3.656;2022-07-06T15:25:47;23.50;99.90
21047;DHT22;10682;50.874;3.656;2022-07-06T15:28:23;23.80;99.90
21047;DHT22;10682;50.874;3.656;2022-07-06T15:30:54;24.00;99.90
21047;DHT22;10682;50.874;3.656;2022-07-06T15:33:21;24.40;99.90
21047;DHT22;10682;50.874;3.656;2022-07-06T15:35:49;24.70;99.90
21047;DHT22;10682;50.874;3.656;2022-07-06T15:38:16;25.00;99.90
21047;DHT22;10682;50.874;3.656;2022-07-06T15:40:53;25.00;99.90
21047;DHT22;10682;50.874;3.656;2022-07-06T15:43:33;24.90;99.90
21047;DHT22;10682;50.874;3.656;2022-07-06T15:46:01;24.70;99.90
21047;DHT22;10682;50.874;3.656;2022-07-06T15:48:33;24.60;99.90
21047;DHT22;10682;50.874;3.656;2022-07-06T15:51:00;24.40;99.90